createdAt,value
2023-09-24T00:00:04.395Z,25.67
2023-09-24T00:01:04.385Z,25.76
2023-09-24T00:02:04.403Z,25.76
2023-09-24T00:03:04.463Z,25.67
2023-09-24T00:04:04.409Z,25.76
2023-09-24T00:05:04.426Z,25.76
2023-09-24T00:06:04.432Z,25.67
2023-09-24T00:07:04.405Z,25.67
2023-09-24T00:08:04.414Z,25.67
2023-09-24T00:09:04.442Z,25.96
2023-09-24T00:10:04.416Z,25.67
2023-09-24T00:11:04.412Z,25.76
2023-09-24T00:12:04.422Z,26.06
2023-09-24T00:13:04.421Z,25.96
2023-09-24T00:14:04.456Z,25.76
2023-09-24T00:15:04.448Z,25.76
2023-09-24T00:16:04.474Z,25.96
2023-09-24T00:17:04.429Z,25.86
2023-09-24T00:18:04.567Z,25.96
2023-09-24T00:19:04.433Z,25.96
2023-09-24T00:20:04.442Z,25.96
2023-09-24T00:21:04.457Z,25.86
2023-09-24T00:22:04.447Z,25.86
2023-09-24T00:23:04.446Z,25.76
2023-09-24T00:24:04.501Z,25.86
2023-09-24T00:25:04.455Z,25.86
2023-09-24T00:26:04.458Z,25.86
2023-09-24T00:27:04.456Z,25.96
2023-09-24T00:28:04.464Z,25.96
2023-09-24T00:29:04.460Z,25.96
2023-09-24T00:30:04.465Z,25.96
2023-09-24T00:31:04.461Z,25.96
2023-09-24T00:32:05.120Z,25.96
2023-09-24T00:33:04.555Z,25.96
2023-09-24T00:34:04.479Z,25.86
2023-09-24T00:35:04.480Z,25.76
2023-09-24T00:36:04.648Z,25.76
2023-09-24T00:37:04.526Z,25.86
2023-09-24T00:38:04.489Z,25.86
2023-09-24T00:39:04.492Z,25.86
2023-09-24T00:40:04.501Z,25.86
2023-09-24T00:41:04.496Z,25.76
2023-09-24T00:42:04.496Z,25.96
2023-09-24T00:43:04.492Z,25.76
2023-09-24T00:44:04.506Z,25.86
2023-09-24T00:45:04.499Z,25.76
2023-09-24T00:46:04.575Z,25.96
2023-09-24T00:47:04.504Z,25.96
2023-09-24T00:48:04.570Z,25.76
2023-09-24T00:49:04.513Z,25.86
2023-09-24T00:50:04.529Z,25.86
2023-09-24T00:51:04.515Z,25.86
2023-09-24T00:52:04.542Z,26.06
2023-09-24T00:53:04.574Z,25.76
2023-09-24T00:54:04.543Z,26.06
2023-09-24T00:55:04.523Z,26.06
2023-09-24T00:56:04.535Z,26.06
2023-09-24T00:57:04.527Z,26.06
2023-09-24T00:58:04.534Z,26.06
2023-09-24T00:59:04.534Z,26.06
2023-09-24T01:00:04.541Z,26.06
2023-09-24T01:01:04.593Z,26.06
2023-09-24T01:02:04.549Z,25.96
2023-09-24T01:03:04.626Z,26.06
2023-09-24T01:04:04.752Z,25.86
2023-09-24T01:05:04.549Z,26.15
2023-09-24T01:06:04.564Z,26.06
2023-09-24T01:07:04.556Z,26.15
2023-09-24T01:08:04.566Z,26.06
2023-09-24T01:09:04.606Z,26.06
2023-09-24T01:10:04.570Z,25.96
2023-09-24T01:11:04.565Z,26.06
2023-09-24T01:12:04.592Z,26.06
2023-09-24T01:13:04.574Z,25.96
2023-09-24T01:14:04.584Z,25.96
2023-09-24T01:15:04.581Z,26.06
2023-09-24T01:16:04.595Z,26.06
2023-09-24T01:17:04.584Z,25.96
2023-09-24T01:18:04.731Z,25.96
2023-09-24T01:19:04.591Z,25.96
2023-09-24T01:20:04.600Z,26.06
2023-09-24T01:21:04.657Z,25.96
2023-09-24T01:22:04.604Z,26.06
2023-09-24T01:23:04.602Z,25.96
2023-09-24T01:24:04.627Z,25.96
2023-09-24T01:25:04.626Z,26.06
2023-09-24T01:26:04.650Z,26.06
2023-09-24T01:27:04.669Z,25.96
2023-09-24T01:28:04.624Z,26.15
2023-09-24T01:29:04.617Z,25.96
2023-09-24T01:30:04.626Z,25.96
2023-09-24T01:31:04.625Z,25.96
2023-09-24T01:32:04.632Z,26.15
2023-09-24T01:33:04.794Z,26.15
2023-09-24T01:34:04.797Z,25.96
2023-09-24T01:35:04.728Z,25.96
2023-09-24T01:36:04.645Z,25.96
2023-09-24T01:37:04.637Z,26.06
2023-09-24T01:38:04.649Z,25.96
2023-09-24T01:39:04.696Z,25.86
2023-09-24T01:40:04.652Z,26.15
2023-09-24T01:41:04.672Z,26.54
2023-09-24T01:42:04.704Z,25.86
2023-09-24T01:43:04.651Z,26.06
2023-09-24T01:44:04.664Z,25.96
2023-09-24T01:45:04.668Z,25.86
2023-09-24T01:46:04.665Z,26.34
2023-09-24T01:47:04.796Z,25.96
2023-09-24T01:48:04.921Z,26.44
2023-09-24T01:49:04.666Z,25.86
2023-09-24T01:50:04.680Z,25.96
2023-09-24T01:51:04.674Z,25.86
2023-09-24T01:52:04.682Z,25.86
2023-09-24T01:53:04.687Z,25.86
2023-09-24T01:54:04.728Z,26.25
2023-09-24T01:55:04.695Z,26.25
2023-09-24T01:56:04.693Z,26.06
2023-09-24T01:57:04.711Z,26.25
2023-09-24T01:58:04.698Z,25.96
2023-09-24T01:59:04.693Z,26.25
2023-09-24T02:00:04.709Z,25.96
2023-09-24T02:01:04.715Z,26.34
2023-09-24T02:02:04.732Z,25.96
2023-09-24T02:03:04.742Z,25.96
2023-09-24T02:04:04.820Z,26.25
2023-09-24T02:05:04.709Z,26.25
2023-09-24T02:06:04.839Z,26.34
2023-09-24T02:07:04.714Z,26.06
2023-09-24T02:08:04.725Z,25.96
2023-09-24T02:09:04.722Z,25.96
2023-09-24T02:10:04.725Z,25.96
2023-09-24T02:11:04.735Z,26.25
2023-09-24T02:12:04.775Z,25.96
2023-09-24T02:13:04.762Z,25.96
2023-09-24T02:14:04.746Z,26.06
2023-09-24T02:15:04.729Z,25.96
2023-09-24T02:16:04.746Z,25.86
2023-09-24T02:17:04.734Z,26.15
2023-09-24T02:18:04.842Z,26.04
2023-09-24T02:19:04.735Z,26.06
2023-09-24T02:20:04.759Z,26.06
2023-09-24T02:21:04.778Z,25.86
2023-09-24T02:22:04.757Z,26.34
2023-09-24T02:23:04.741Z,26.06
2023-09-24T02:24:04.786Z,26.25
2023-09-24T02:25:04.748Z,26.06
2023-09-24T02:26:04.757Z,26.25
2023-09-24T02:27:04.782Z,26.04
2023-09-24T02:28:04.760Z,26.44
2023-09-24T02:29:04.773Z,26.04
2023-09-24T02:30:05.024Z,26.15
2023-09-24T02:31:04.855Z,26.06
2023-09-24T02:32:04.771Z,26.15
2023-09-24T02:33:04.992Z,26.06
2023-09-24T02:34:04.774Z,26.34
2023-09-24T02:35:04.770Z,26.06
2023-09-24T02:36:04.802Z,26.06
2023-09-24T02:37:04.776Z,26.25
2023-09-24T02:38:04.796Z,26.25
2023-09-24T02:39:04.873Z,25.96
2023-09-24T02:40:04.808Z,26.25
2023-09-24T02:41:04.788Z,26.15
2023-09-24T02:42:04.798Z,26.06
2023-09-24T02:43:04.907Z,26.25
2023-09-24T02:44:04.807Z,25.96
2023-09-24T02:45:04.846Z,26.15
2023-09-24T02:46:04.849Z,25.86
2023-09-24T02:47:04.800Z,26.15
2023-09-24T02:48:04.934Z,25.86
2023-09-24T02:49:04.805Z,25.86
2023-09-24T02:50:04.816Z,25.96
2023-09-24T02:51:04.853Z,25.96
2023-09-24T02:52:04.834Z,26.06
2023-09-24T02:53:04.816Z,26.06
2023-09-24T02:54:04.850Z,25.96
2023-09-24T02:55:04.824Z,25.96
2023-09-24T02:56:04.832Z,26.06
2023-09-24T02:57:04.879Z,25.96
2023-09-24T02:58:04.837Z,25.96
2023-09-24T02:59:04.836Z,26.06
2023-09-24T03:00:04.850Z,26.06
2023-09-24T03:01:04.962Z,25.96
2023-09-24T03:02:04.870Z,25.86
2023-09-24T03:03:04.936Z,25.86
2023-09-24T03:04:05.005Z,25.96
2023-09-24T03:05:04.857Z,26.06
2023-09-24T03:06:04.896Z,25.86
2023-09-24T03:07:04.853Z,25.76
2023-09-24T03:08:04.876Z,25.76
2023-09-24T03:09:04.855Z,25.86
2023-09-24T03:10:04.873Z,25.86
2023-09-24T03:11:04.863Z,25.86
2023-09-24T03:12:04.906Z,25.86
2023-09-24T03:13:04.867Z,25.86
2023-09-24T03:14:04.880Z,25.96
2023-09-24T03:15:04.896Z,26.06
2023-09-24T03:16:04.903Z,25.86
2023-09-24T03:17:04.902Z,25.96
2023-09-24T03:18:04.992Z,25.96
2023-09-24T03:19:06.468Z,25.96
2023-09-24T03:20:04.904Z,26.06
2023-09-24T03:21:04.923Z,26.06
2023-09-24T03:22:04.909Z,25.76
2023-09-24T03:23:05.088Z,26.06
2023-09-24T03:24:04.991Z,26.06
2023-09-24T03:25:04.919Z,25.96
2023-09-24T03:26:04.911Z,26.06
2023-09-24T03:27:04.954Z,26.06
2023-09-24T03:28:04.913Z,26.06
2023-09-24T03:29:04.906Z,25.96
2023-09-24T03:30:04.966Z,26.06
2023-09-24T03:31:04.922Z,25.96
2023-09-24T03:32:04.942Z,25.96
2023-09-24T03:33:05.014Z,25.96
2023-09-24T03:34:04.927Z,25.86
2023-09-24T03:35:04.930Z,25.95
2023-09-24T03:36:04.987Z,25.86
2023-09-24T03:37:04.934Z,25.85
2023-09-24T03:38:04.932Z,26.06
2023-09-24T03:39:05.046Z,25.96
2023-09-24T03:40:04.935Z,26.06
2023-09-24T03:41:05.023Z,26.06
2023-09-24T03:42:04.951Z,25.85
2023-09-24T03:43:04.947Z,26.04
2023-09-24T03:44:04.946Z,26.06
2023-09-24T03:45:04.983Z,25.95
2023-09-24T03:46:04.975Z,26.06
2023-09-24T03:47:04.956Z,25.95
2023-09-24T03:48:05.022Z,25.85
2023-09-24T03:49:04.993Z,25.95
2023-09-24T03:50:04.963Z,25.86
2023-09-24T03:51:05.051Z,25.85
2023-09-24T03:52:04.964Z,26.04
2023-09-24T03:53:04.995Z,25.86
2023-09-24T03:54:04.990Z,25.85
2023-09-24T03:55:04.976Z,25.96
2023-09-24T03:56:04.987Z,26.04
2023-09-24T03:57:05.087Z,25.96
2023-09-24T03:58:04.984Z,25.95
2023-09-24T03:59:04.987Z,25.85
2023-09-24T04:00:05.044Z,26.06
2023-09-24T04:01:05.039Z,25.96
2023-09-24T04:02:04.997Z,25.96
2023-09-24T04:03:05.059Z,25.96
2023-09-24T04:04:05.161Z,25.95
2023-09-24T04:05:05.028Z,26.04
2023-09-24T04:06:05.038Z,25.95
2023-09-24T04:07:05.009Z,25.96
2023-09-24T04:08:05.047Z,26.06
2023-09-24T04:09:05.024Z,26.14
2023-09-24T04:10:05.072Z,26.04
2023-09-24T04:11:05.019Z,26.04
2023-09-24T04:12:05.037Z,26.15
2023-09-24T04:13:05.022Z,25.85
2023-09-24T04:14:05.016Z,25.75
2023-09-24T04:15:05.101Z,26.06
2023-09-24T04:16:05.053Z,26.04
2023-09-24T04:17:05.077Z,26.06
2023-09-24T04:18:05.075Z,26.15
2023-09-24T04:19:05.034Z,25.96
2023-09-24T04:20:05.033Z,25.95
2023-09-24T04:21:05.101Z,26.04
2023-09-24T04:22:05.076Z,26.14
2023-09-24T04:23:05.045Z,25.96
2023-09-24T04:24:05.120Z,26.06
2023-09-24T04:25:05.050Z,26.04
2023-09-24T04:26:05.054Z,25.95
2023-09-24T04:27:05.081Z,25.86
2023-09-24T04:28:05.062Z,26.06
2023-09-24T04:29:05.058Z,25.95
2023-09-24T04:30:05.071Z,26.06
2023-09-24T04:31:05.079Z,25.86
2023-09-24T04:32:05.061Z,26.04
2023-09-24T04:33:05.148Z,25.95
2023-09-24T04:34:05.181Z,26.06
2023-09-24T04:35:05.074Z,26.06
2023-09-24T04:36:05.116Z,25.95
2023-09-24T04:37:05.105Z,26.04
2023-09-24T04:38:05.073Z,25.96
2023-09-24T04:39:05.118Z,25.85
2023-09-24T04:40:05.078Z,26.04
2023-09-24T04:41:05.088Z,26.04
2023-09-24T04:42:05.115Z,26.04
2023-09-24T04:43:05.094Z,25.95
2023-09-24T04:44:05.096Z,26.06
2023-09-24T04:45:05.126Z,25.75
2023-09-24T04:46:05.131Z,26.04
2023-09-24T04:47:05.104Z,26.04
2023-09-24T04:48:05.302Z,25.75
2023-09-24T04:49:05.209Z,25.85
2023-09-24T04:50:05.102Z,26.06
2023-09-24T04:51:05.144Z,25.86
2023-09-24T04:52:05.113Z,25.85
2023-09-24T04:53:05.142Z,25.95
2023-09-24T04:54:05.178Z,25.86
2023-09-24T04:55:05.121Z,25.86
2023-09-24T04:56:05.116Z,25.85
2023-09-24T04:57:05.350Z,25.85
2023-09-24T04:58:05.121Z,25.96
2023-09-24T04:59:05.133Z,25.96
2023-09-24T05:00:05.159Z,25.86
2023-09-24T05:01:05.143Z,25.67
2023-09-24T05:02:05.134Z,25.75
2023-09-24T05:03:05.355Z,25.75
2023-09-24T05:04:05.425Z,25.65
2023-09-24T05:05:05.255Z,25.96
2023-09-24T05:06:05.214Z,25.96
2023-09-24T05:07:05.151Z,25.75
2023-09-24T05:08:05.156Z,25.75
2023-09-24T05:09:05.250Z,25.95
2023-09-24T05:10:05.149Z,25.86
2023-09-24T05:11:05.175Z,25.85
2023-09-24T05:12:05.205Z,25.95
2023-09-24T05:13:05.165Z,25.85
2023-09-24T05:14:05.164Z,25.96
2023-09-24T05:15:05.351Z,25.96
2023-09-24T05:16:05.170Z,25.85
2023-09-24T05:17:05.234Z,25.85
2023-09-24T05:18:05.272Z,25.76
2023-09-24T05:19:05.184Z,25.75
2023-09-24T05:20:05.178Z,25.85
2023-09-24T05:21:05.195Z,25.65
2023-09-24T05:22:05.181Z,25.95
2023-09-24T05:23:05.189Z,25.86
2023-09-24T05:24:05.269Z,25.85
2023-09-24T05:25:05.216Z,25.85
2023-09-24T05:26:05.210Z,25.95
2023-09-24T05:27:05.233Z,25.85
2023-09-24T05:28:05.199Z,25.96
2023-09-24T05:29:05.204Z,25.86
2023-09-24T05:30:05.228Z,25.96
2023-09-24T05:31:05.245Z,25.95
2023-09-24T05:32:05.206Z,25.65
2023-09-24T05:33:05.306Z,25.75
2023-09-24T05:34:05.210Z,25.65
2023-09-24T05:35:05.222Z,25.67
2023-09-24T05:36:05.229Z,25.67
2023-09-24T05:37:05.224Z,25.75
2023-09-24T05:38:05.221Z,25.85
2023-09-24T05:39:05.319Z,25.65
2023-09-24T05:40:05.225Z,25.67
2023-09-24T05:41:05.273Z,25.75
2023-09-24T05:42:05.289Z,25.76
2023-09-24T05:43:05.240Z,25.75
2023-09-24T05:44:05.239Z,25.67
2023-09-24T05:45:05.308Z,25.65
2023-09-24T05:46:05.271Z,25.65
2023-09-24T05:47:05.248Z,25.67
2023-09-24T05:48:05.315Z,25.67
2023-09-24T05:49:05.253Z,25.65
2023-09-24T05:50:05.261Z,25.76
2023-09-24T05:51:05.316Z,25.76
2023-09-24T05:52:05.256Z,25.67
2023-09-24T05:53:05.262Z,25.56
2023-09-24T05:54:05.331Z,25.67
2023-09-24T05:55:05.309Z,25.67
2023-09-24T05:56:05.268Z,25.67
2023-09-24T05:57:05.516Z,25.56
2023-09-24T05:58:05.274Z,25.67
2023-09-24T05:59:05.278Z,25.67
2023-09-24T06:00:05.301Z,25.76
2023-09-24T06:01:05.294Z,25.67
2023-09-24T06:02:05.308Z,25.65
2023-09-24T06:03:05.445Z,25.65
2023-09-24T06:04:05.387Z,25.65
2023-09-24T06:05:05.293Z,25.76
2023-09-24T06:06:05.316Z,25.56
2023-09-24T06:07:05.297Z,25.67
2023-09-24T06:08:05.293Z,25.76
2023-09-24T06:09:05.333Z,25.65
2023-09-24T06:10:05.304Z,25.76
2023-09-24T06:11:05.314Z,25.56
2023-09-24T06:12:05.335Z,25.67
2023-09-24T06:13:05.352Z,25.67
2023-09-24T06:14:05.307Z,25.76
2023-09-24T06:15:05.373Z,25.56
2023-09-24T06:16:05.319Z,25.67
2023-09-24T06:17:05.340Z,25.65
2023-09-24T06:18:05.439Z,25.75
2023-09-24T06:19:05.326Z,25.67
2023-09-24T06:20:05.323Z,25.65
2023-09-24T06:21:05.417Z,25.67
2023-09-24T06:22:05.327Z,25.76
2023-09-24T06:23:05.338Z,25.86
2023-09-24T06:24:05.358Z,25.65
2023-09-24T06:25:05.341Z,25.65
2023-09-24T06:26:05.340Z,25.76
2023-09-24T06:27:05.361Z,25.57
2023-09-24T06:28:05.347Z,25.67
2023-09-24T06:29:11.740Z,25.67
2023-09-24T06:30:05.432Z,25.67
2023-09-24T06:31:05.364Z,25.76
2023-09-24T06:32:05.377Z,25.76
2023-09-24T06:33:05.432Z,25.75
2023-09-24T06:34:05.374Z,25.76
2023-09-24T06:35:05.373Z,25.76
2023-09-24T06:36:05.461Z,25.65
2023-09-24T06:37:05.387Z,25.65
2023-09-24T06:38:05.370Z,25.67
2023-09-24T06:39:05.381Z,25.76
2023-09-24T06:40:05.377Z,25.65
2023-09-24T06:41:05.376Z,25.67
2023-09-24T06:42:05.383Z,25.65
2023-09-24T06:43:05.381Z,25.65
2023-09-24T06:44:05.381Z,25.75
2023-09-24T06:45:05.454Z,25.65
2023-09-24T06:46:05.492Z,25.95
2023-09-24T06:47:05.392Z,25.56
2023-09-24T06:48:05.477Z,25.86
2023-09-24T06:49:05.426Z,25.86
2023-09-24T06:50:05.393Z,25.26
2023-09-24T06:51:05.456Z,25.57
2023-09-24T06:52:05.397Z,25.86
2023-09-24T06:53:05.408Z,25.96
2023-09-24T06:54:05.464Z,25.86
2023-09-24T06:55:05.416Z,25.75
2023-09-24T06:56:05.413Z,25.76
2023-09-24T06:57:05.471Z,25.76
2023-09-24T06:58:05.412Z,25.75
2023-09-24T06:59:05.421Z,25.65
2023-09-24T07:00:05.447Z,25.75
2023-09-24T07:01:05.463Z,25.75
2023-09-24T07:02:05.420Z,25.86
2023-09-24T07:03:05.535Z,25.85
2023-09-24T07:04:05.511Z,25.86
2023-09-24T07:05:05.437Z,25.85
2023-09-24T07:06:05.514Z,25.85
2023-09-24T07:07:05.439Z,25.85
2023-09-24T07:08:05.436Z,25.95
2023-09-24T07:09:05.489Z,25.47
2023-09-24T07:10:05.446Z,25.85
2023-09-24T07:11:05.453Z,25.86
2023-09-24T07:12:05.514Z,26.06
2023-09-24T07:13:05.456Z,25.96
2023-09-24T07:14:05.451Z,25.85
2023-09-24T07:15:05.518Z,25.75
2023-09-24T07:16:05.473Z,25.75
2023-09-24T07:17:05.487Z,25.96
2023-09-24T07:18:05.497Z,25.95
2023-09-24T07:19:05.469Z,25.85
2023-09-24T07:20:05.466Z,25.86
2023-09-24T07:21:09.388Z,25.95
2023-09-24T07:22:05.468Z,25.85
2023-09-24T07:23:05.482Z,25.86
2023-09-24T07:24:05.766Z,25.86
2023-09-24T07:25:05.486Z,25.86
2023-09-24T07:26:05.480Z,25.85
2023-09-24T07:27:05.509Z,25.75
2023-09-24T07:28:05.486Z,25.85
2023-09-24T07:29:05.503Z,25.86
2023-09-24T07:30:05.513Z,25.86
2023-09-24T07:31:05.499Z,25.95
2023-09-24T07:32:05.555Z,25.95
2023-09-24T07:33:05.642Z,25.95
2023-09-24T07:34:05.498Z,25.85
2023-09-24T07:35:05.509Z,25.96
2023-09-24T07:36:10.602Z,25.96
2023-09-24T07:37:13.827Z,25.86
2023-09-24T07:38:05.509Z,25.85
2023-09-24T07:39:05.602Z,26.06
2023-09-24T07:40:05.519Z,25.86
2023-09-24T07:41:05.521Z,25.95
2023-09-24T07:42:05.585Z,25.86
2023-09-24T07:43:05.527Z,25.86
2023-09-24T07:44:05.524Z,25.86
2023-09-24T07:45:05.558Z,25.85
2023-09-24T07:46:05.552Z,25.86
2023-09-24T07:47:05.546Z,25.85
2023-09-24T07:48:05.630Z,25.65
2023-09-24T07:49:05.561Z,25.76
2023-09-24T07:50:05.541Z,25.65
2023-09-24T07:51:05.576Z,25.75
2023-09-24T07:52:05.580Z,25.65
2023-09-24T07:53:05.548Z,25.65
2023-09-24T07:54:05.603Z,25.75
2023-09-24T07:55:05.547Z,25.67
2023-09-24T07:56:05.572Z,25.67
2023-09-24T07:57:05.604Z,25.65
2023-09-24T07:58:05.558Z,25.76
2023-09-24T07:59:05.554Z,25.67
2023-09-24T08:00:05.651Z,25.65
2023-09-24T08:01:05.574Z,25.76
2023-09-24T08:02:05.594Z,25.75
2023-09-24T08:03:05.677Z,25.76
2023-09-24T08:04:05.578Z,25.75
2023-09-24T08:05:05.623Z,25.75
2023-09-24T08:06:05.683Z,25.65
2023-09-24T08:07:05.573Z,25.75
2023-09-24T08:08:05.593Z,25.67
2023-09-24T08:09:13.735Z,25.65
2023-09-24T08:10:05.707Z,25.65
2023-09-24T08:11:05.642Z,25.57
2023-09-24T08:12:05.666Z,25.56
2023-09-24T08:13:05.596Z,25.85
2023-09-24T08:14:05.601Z,25.86
2023-09-24T08:15:05.678Z,25.75
2023-09-24T08:16:05.745Z,25.76
2023-09-24T08:17:05.652Z,25.76
2023-09-24T08:18:05.704Z,25.75
2023-09-24T08:19:05.605Z,25.56
2023-09-24T08:20:05.616Z,25.67
2023-09-24T08:21:05.746Z,25.65
2023-09-24T08:22:05.624Z,25.75
2023-09-24T08:23:05.616Z,25.57
2023-09-24T08:24:05.668Z,25.67
2023-09-24T08:25:05.621Z,25.65
2023-09-24T08:26:05.629Z,25.57
2023-09-24T08:27:05.742Z,25.76
2023-09-24T08:28:05.635Z,25.65
2023-09-24T08:29:05.628Z,25.67
2023-09-24T08:30:05.715Z,25.65
2023-09-24T08:31:05.669Z,25.75
2023-09-24T08:32:05.655Z,25.67
2023-09-24T08:33:05.714Z,25.65
2023-09-24T08:34:05.713Z,25.65
2023-09-24T08:35:05.643Z,25.65
2023-09-24T08:36:05.706Z,25.67
2023-09-24T08:37:05.684Z,25.65
2023-09-24T08:38:05.655Z,25.75
2023-09-24T08:39:06.907Z,25.65
2023-09-24T08:40:05.665Z,25.57
2023-09-24T08:41:05.658Z,25.76
2023-09-24T08:42:05.707Z,26.04
2023-09-24T08:43:05.673Z,25.86
2023-09-24T08:44:05.688Z,25.86
2023-09-24T08:45:05.738Z,25.86
2023-09-24T08:46:05.697Z,25.86
2023-09-24T08:47:05.674Z,25.95
2023-09-24T08:48:05.772Z,26.04
2023-09-24T08:49:05.678Z,25.85
2023-09-24T08:50:05.691Z,25.86
2023-09-24T08:51:05.704Z,26.14
2023-09-24T08:52:05.695Z,26.06
2023-09-24T08:53:05.801Z,25.96
2023-09-24T08:54:05.844Z,25.95
2023-09-24T08:55:05.692Z,25.86
2023-09-24T08:56:05.702Z,25.96
2023-09-24T08:57:05.737Z,25.85
2023-09-24T08:58:05.705Z,25.95
2023-09-24T08:59:05.704Z,25.95
2023-09-24T09:00:05.734Z,25.96
2023-09-24T09:01:05.721Z,25.96
2023-09-24T09:02:05.757Z,26.25
2023-09-24T09:03:05.808Z,25.86
2023-09-24T09:04:05.817Z,25.95
2023-09-24T09:05:05.717Z,26.25
2023-09-24T09:06:05.767Z,26.06
2023-09-24T09:07:05.723Z,26.25
2023-09-24T09:08:05.741Z,26.25
2023-09-24T09:09:05.773Z,26.06
2023-09-24T09:10:05.737Z,26.14
2023-09-24T09:11:05.733Z,26.14
2023-09-24T09:12:05.758Z,26.25
2023-09-24T09:13:05.734Z,26.14
2023-09-24T09:14:05.745Z,26.15
2023-09-24T09:15:05.757Z,26.06
2023-09-24T09:16:05.749Z,26.04
2023-09-24T09:17:07.216Z,26.14
2023-09-24T09:18:05.865Z,26.14
2023-09-24T09:19:05.759Z,26.04
2023-09-24T09:20:05.761Z,26.04
2023-09-24T09:21:05.832Z,26.04
2023-09-24T09:22:05.766Z,26.14
2023-09-24T09:23:05.757Z,26.15
2023-09-24T09:24:05.903Z,26.04
2023-09-24T09:25:05.884Z,26.15
2023-09-24T09:26:05.795Z,26.44
2023-09-24T09:27:05.797Z,26.14
2023-09-24T09:28:05.777Z,26.44
2023-09-24T09:29:05.775Z,26.15
2023-09-24T09:30:05.878Z,26.43
2023-09-24T09:31:05.819Z,26.43
2023-09-24T09:32:05.817Z,26.44
2023-09-24T09:33:05.876Z,26.44
2023-09-24T09:34:05.805Z,26.44
2023-09-24T09:35:05.790Z,26.33
2023-09-24T09:36:05.895Z,26.34
2023-09-24T09:37:05.806Z,26.43
2023-09-24T09:38:05.805Z,26.25
2023-09-24T09:39:05.879Z,26.43
2023-09-24T09:40:05.810Z,26.23
2023-09-24T09:41:05.832Z,26.33
2023-09-24T09:42:05.857Z,26.25
2023-09-24T09:43:05.808Z,26.34
2023-09-24T09:44:05.821Z,26.34
2023-09-24T09:45:05.847Z,26.25
2023-09-24T09:46:05.879Z,26.43
2023-09-24T09:47:05.818Z,26.23
2023-09-24T09:48:06.019Z,26.23
2023-09-24T09:49:05.826Z,26.25
2023-09-24T09:50:05.844Z,26.44
2023-09-24T09:51:05.848Z,26.25
2023-09-24T09:52:05.887Z,26.34
2023-09-24T09:53:05.833Z,26.44
2023-09-24T09:54:05.923Z,26.54
2023-09-24T09:55:05.847Z,26.43
2023-09-24T09:56:05.860Z,26.64
2023-09-24T09:57:06.046Z,26.62
2023-09-24T09:58:20.094Z,26.43
2023-09-24T09:59:05.869Z,26.53
2023-09-24T10:00:05.893Z,26.44
2023-09-24T10:01:05.873Z,26.34
2023-09-24T10:02:05.933Z,26.62
2023-09-24T10:03:05.916Z,26.54
2023-09-24T10:04:05.866Z,26.33
2023-09-24T10:05:05.896Z,26.34
2023-09-24T10:06:05.917Z,26.43
2023-09-24T10:07:05.869Z,26.54
2023-09-24T10:08:05.878Z,26.15
2023-09-24T10:09:05.889Z,26.33
2023-09-24T10:10:05.884Z,26.33
2023-09-24T10:11:05.877Z,26.43
2023-09-24T10:12:05.909Z,26.34
2023-09-24T10:13:05.919Z,26.33
2023-09-24T10:14:05.888Z,26.23
2023-09-24T10:15:05.941Z,26.23
2023-09-24T10:16:05.911Z,26.33
2023-09-24T10:17:05.889Z,26.54
2023-09-24T10:18:05.957Z,26.43
2023-09-24T10:19:05.896Z,26.44
2023-09-24T10:20:05.910Z,26.64
2023-09-24T10:21:05.945Z,26.53
2023-09-24T10:22:05.919Z,26.54
2023-09-24T10:23:05.906Z,26.62
2023-09-24T10:24:05.915Z,26.54
2023-09-24T10:25:05.918Z,26.64
2023-09-24T10:26:05.920Z,26.62
2023-09-24T10:27:06.183Z,26.62
2023-09-24T10:28:08.224Z,26.82
2023-09-24T10:29:05.944Z,26.43
2023-09-24T10:30:05.974Z,26.43
2023-09-24T10:31:05.990Z,26.82
2023-09-24T10:32:05.965Z,26.53
2023-09-24T10:33:05.981Z,26.62
2023-09-24T10:34:05.939Z,26.62
2023-09-24T10:35:05.937Z,26.72
2023-09-24T10:36:05.987Z,26.73
2023-09-24T10:37:05.944Z,26.72
2023-09-24T10:38:05.957Z,26.62
2023-09-24T10:39:05.978Z,26.64
2023-09-24T10:40:06.022Z,26.72
2023-09-24T10:41:05.958Z,26.72
2023-09-24T10:42:05.985Z,26.72
2023-09-24T10:43:05.952Z,26.62
2023-09-24T10:44:05.960Z,26.72
2023-09-24T10:45:06.054Z,26.73
2023-09-24T10:46:06.021Z,26.83
2023-09-24T10:47:05.961Z,26.72
2023-09-24T10:48:06.113Z,26.83
2023-09-24T10:49:06.042Z,26.82
2023-09-24T10:50:05.978Z,26.64
2023-09-24T10:51:05.981Z,27.03
2023-09-24T10:52:05.979Z,26.93
2023-09-24T10:53:05.984Z,26.92
2023-09-24T10:54:06.021Z,26.64
2023-09-24T10:55:05.979Z,26.83
2023-09-24T10:56:11.964Z,26.82
2023-09-24T10:57:05.985Z,26.93
2023-09-24T10:58:05.999Z,26.93
2023-09-24T10:59:05.992Z,26.73
2023-09-24T11:00:06.089Z,26.73
2023-09-24T11:01:06.072Z,26.92
2023-09-24T11:02:06.074Z,26.92
2023-09-24T11:03:06.194Z,27.01
2023-09-24T11:04:06.157Z,26.92
2023-09-24T11:05:06.005Z,27.01
2023-09-24T11:06:06.065Z,27.12
2023-09-24T11:07:06.012Z,27.11
2023-09-24T11:08:06.021Z,27.03
2023-09-24T11:09:06.090Z,27.21
2023-09-24T11:10:06.025Z,27.11
2023-09-24T11:11:06.027Z,27.22
2023-09-24T11:12:06.051Z,27.12
2023-09-24T11:13:06.032Z,27.11
2023-09-24T11:14:06.035Z,26.93
2023-09-24T11:15:15.590Z,27.01
2023-09-24T11:16:06.075Z,27.12
2023-09-24T11:17:06.059Z,27.01
2023-09-24T11:18:06.154Z,27.22
2023-09-24T11:19:06.041Z,27.22
2023-09-24T11:20:06.050Z,27.01
2023-09-24T11:21:06.076Z,27.11
2023-09-24T11:22:06.069Z,26.92
2023-09-24T11:23:06.050Z,27.03
2023-09-24T11:24:06.093Z,26.93
2023-09-24T11:25:06.094Z,27.01
2023-09-24T11:26:06.064Z,27.03
2023-09-24T11:27:06.140Z,27.11
2023-09-24T11:28:06.070Z,27.22
2023-09-24T11:29:06.064Z,27.03
2023-09-24T11:30:06.107Z,26.82
2023-09-24T11:31:06.143Z,26.72
2023-09-24T11:32:06.104Z,26.82
2023-09-24T11:33:06.175Z,26.83
2023-09-24T11:34:06.085Z,26.82
2023-09-24T11:35:06.137Z,26.62
2023-09-24T11:36:06.144Z,26.83
2023-09-24T11:37:06.081Z,26.73
2023-09-24T11:38:06.097Z,26.72
2023-09-24T11:39:06.115Z,26.83
2023-09-24T11:40:06.100Z,26.72
2023-09-24T11:41:06.095Z,26.73
2023-09-24T11:42:06.126Z,26.73
2023-09-24T11:43:06.115Z,26.64
2023-09-24T11:44:06.111Z,26.72
2023-09-24T11:45:06.158Z,26.53
2023-09-24T11:46:06.123Z,27.03
2023-09-24T11:47:06.134Z,26.83
2023-09-24T11:48:07.507Z,26.73
2023-09-24T11:49:06.192Z,26.53
2023-09-24T11:50:06.131Z,26.62
2023-09-24T11:51:06.181Z,26.83
2023-09-24T11:52:06.128Z,26.62
2023-09-24T11:53:06.123Z,26.72
2023-09-24T11:54:06.205Z,26.72
2023-09-24T11:55:06.155Z,26.73
2023-09-24T11:56:06.149Z,26.82
2023-09-24T11:57:06.306Z,26.64
2023-09-24T11:58:06.142Z,26.62
2023-09-24T11:59:06.144Z,26.73
2023-09-24T12:00:06.187Z,26.73
2023-09-24T12:01:06.166Z,26.64
2023-09-24T12:02:06.157Z,26.62
2023-09-24T12:03:06.278Z,26.73
2023-09-24T12:04:06.235Z,26.83
2023-09-24T12:05:13.358Z,26.72
2023-09-24T12:06:06.224Z,26.64
2023-09-24T12:07:06.164Z,26.73
2023-09-24T12:08:06.156Z,26.34
2023-09-24T12:09:06.225Z,26.73
2023-09-24T12:10:06.160Z,26.73
2023-09-24T12:11:06.170Z,26.43
2023-09-24T12:12:06.244Z,26.72
2023-09-24T12:13:06.177Z,26.62
2023-09-24T12:14:06.176Z,26.53
2023-09-24T12:15:06.270Z,26.43
2023-09-24T12:16:06.196Z,26.33
2023-09-24T12:17:06.187Z,26.54
2023-09-24T12:18:06.425Z,26.34
2023-09-24T12:19:06.198Z,26.64
2023-09-24T12:20:06.195Z,26.53
2023-09-24T12:21:06.359Z,26.62
2023-09-24T12:22:06.193Z,26.54
2023-09-24T12:23:06.203Z,26.33
2023-09-24T12:24:06.220Z,26.53
2023-09-24T12:25:06.210Z,26.54
2023-09-24T12:26:06.221Z,26.23
2023-09-24T12:27:06.226Z,26.25
2023-09-24T12:28:06.227Z,26.54
2023-09-24T12:29:06.216Z,26.44
2023-09-24T12:30:06.248Z,26.33
2023-09-24T12:31:06.256Z,26.34
2023-09-24T12:32:06.216Z,26.44
2023-09-24T12:33:06.324Z,26.15
2023-09-24T12:34:06.349Z,26.23
2023-09-24T12:35:06.232Z,26.15
2023-09-24T12:36:06.273Z,25.96
2023-09-24T12:37:06.262Z,26.14
2023-09-24T12:38:06.263Z,26.33
2023-09-24T12:39:06.272Z,26.33
2023-09-24T12:40:06.236Z,26.15
2023-09-24T12:41:06.251Z,26.34
2023-09-24T12:42:06.257Z,26.06
2023-09-24T12:43:06.255Z,26.15
2023-09-24T12:44:06.258Z,26.14
2023-09-24T12:45:06.350Z,26.04
2023-09-24T12:46:06.317Z,26.04
2023-09-24T12:47:06.287Z,26.15
2023-09-24T12:48:06.384Z,26.23
2023-09-24T12:49:06.269Z,26.23
2023-09-24T12:50:06.271Z,26.04
2023-09-24T12:51:06.303Z,26.04
2023-09-24T12:52:06.265Z,26.23